sensor_id;sensor_type;location;lat;lon;timestamp;temperature;humidity
2363;DHT22;64265;51.664;7.626;2023-02-02T00:00:51;19.00;66.10
2363;DHT22;64265;51.664;7.626;2023-02-02T00:03:17;19.00;66.10
2363;DHT22;64265;51.664;7.626;2023-02-02T00:05:45;19.00;66.10
2363;DHT22;64265;51.664;7.626;2023-02-02T00:08:12;19.00;66.10
2363;DHT22;64265;51.664;7.626;2023-02-02T00:10:39;19.00;66.10
2363;DHT22;64265;51.664;7.626;2023-02-02T00:13:07;19.00;66.20
2363;DHT22;64265;51.664;7.626;2023-02-02T00:15:34;18.90;66.10
2363;DHT22;64265;51.664;7.626;2023-02-02T00:18:01;18.90;66.10
2363;DHT22;64265;51.664;7.626;2023-02-02T00:20:27;18.90;66.10
2363;DHT22;64265;51.664;7.626;2023-02-02T00:22:54;18.90;66.10
2363;DHT22;64265;51.664;7.626;2023-02-02T00:25:23;18.90;66.10
2363;DHT22;64265;51.664;7.626;2023-02-02T00:27:50;18.90;66.10
2363;DHT22;64265;51.664;7.626;2023-02-02T00:30:18;18.90;66.10
2363;DHT22;64265;51.664;7.626;2023-02-02T00:32:45;18.90;66.10
2363;DHT22;64265;51.664;7.626;2023-02-02T00:35:15;18.90;66.10
2363;DHT22;64265;51.664;7.626;2023-02-02T00:37:41;18.90;66.20
2363;DHT22;64265;51.664;7.626;2023-02-02T00:40:09;18.90;66.10
2363;DHT22;64265;51.664;7.626;2023-02-02T00:42:36;18.90;66.20
2363;DHT22;64265;51.664;7.626;2023-02-02T00:45:04;18.90;66.20
2363;DHT22;64265;51.664;7.626;2023-02-02T00:47:46;18.90;66.20
2363;DHT22;64265;51.664;7.626;2023-02-02T00:50:15;18.90;66.30
2363;DHT22;64265;51.664;7.626;2023-02-02T00:52:43;18.90;66.40
2363;DHT22;64265;51.664;7.626;2023-02-02T00:55:11;18.90;66.40
2363;DHT22;64265;51.664;7.626;2023-02-02T00:57:38;18.80;66.30
2363;DHT22;64265;51.664;7.626;2023-02-02T01:00:09;18.80;66.30
2363;DHT22;64265;51.664;7.626;2023-02-02T01:02:37;18.80;66.30
2363;DHT22;64265;51.664;7.626;2023-02-02T01:05:06;18.80;66.30
2363;DHT22;64265;51.664;7.626;2023-02-02T01:07:32;18.80;66.30
2363;DHT22;64265;51.664;7.626;2023-02-02T01:09:59;18.80;66.40
2363;DHT22;64265;51.664;7.626;2023-02-02T01:12:26;18.80;66.40
2363;DHT22;64265;51.664;7.626;2023-02-02T01:14:53;18.80;66.40
2363;DHT22;64265;51.664;7.626;2023-02-02T01:17:19;18.80;66.40
2363;DHT22;64265;51.664;7.626;2023-02-02T01:19:46;18.80;66.40
2363;DHT22;64265;51.664;7.626;2023-02-02T01:22:14;18.80;66.40
2363;DHT22;64265;51.664;7.626;2023-02-02T01:24:41;18.70;66.30
2363;DHT22;64265;51.664;7.626;2023-02-02T01:27:08;18.70;66.30
2363;DHT22;64265;51.664;7.626;2023-02-02T01:29:34;18.70;66.30
2363;DHT22;64265;51.664;7.626;2023-02-02T01:32:01;18.70;66.30
2363;DHT22;64265;51.664;7.626;2023-02-02T01:34:28;18.70;66.30
2363;DHT22;64265;51.664;7.626;2023-02-02T01:36:55;18.70;66.30
2363;DHT22;64265;51.664;7.626;2023-02-02T01:39:23;18.70;66.30
2363;DHT22;64265;51.664;7.626;2023-02-02T01:41:50;18.70;66.30
2363;DHT22;64265;51.664;7.626;2023-02-02T01:47:23;18.70;66.30
2363;DHT22;64265;51.664;7.626;2023-02-02T01:49:52;18.70;66.30
2363;DHT22;64265;51.664;7.626;2023-02-02T01:52:21;18.70;66.30
2363;DHT22;64265;51.664;7.626;2023-02-02T01:54:52;18.60;66.20
2363;DHT22;64265;51.664;7.626;2023-02-02T01:57:27;18.70;66.30
2363;DHT22;64265;51.664;7.626;2023-02-02T01:59:58;18.60;66.20
2363;DHT22;64265;51.664;7.626;2023-02-02T02:02:27;18.70;66.30
2363;DHT22;64265;51.664;7.626;2023-02-02T02:04:55;18.60;66.20
2363;DHT22;64265;51.664;7.626;2023-02-02T02:07:22;18.60;66.20
2363;DHT22;64265;51.664;7.626;2023-02-02T02:09:50;18.60;66.10
2363;DHT22;64265;51.664;7.626;2023-02-02T02:12:17;18.60;66.10
2363;DHT22;64265;51.664;7.626;2023-02-02T02:14:46;18.60;66.10
2363;DHT22;64265;51.664;7.626;2023-02-02T02:17:44;18.60;66.10
2363;DHT22;64265;51.664;7.626;2023-02-02T02:20:36;18.60;66.10
2363;DHT22;64265;51.664;7.626;2023-02-02T02:23:54;18.60;66.10
2363;DHT22;64265;51.664;7.626;2023-02-02T02:27:06;18.60;66.10
2363;DHT22;64265;51.664;7.626;2023-02-02T02:30:02;18.60;66.00
2363;DHT22;64265;51.664;7.626;2023-02-02T02:32:43;18.50;65.90
2363;DHT22;64265;51.664;7.626;2023-02-02T02:35:19;18.50;65.90
2363;DHT22;64265;51.664;7.626;2023-02-02T02:37:49;18.50;65.90
2363;DHT22;64265;51.664;7.626;2023-02-02T02:40:23;18.50;65.80
2363;DHT22;64265;51.664;7.626;2023-02-02T02:42:54;18.50;65.80
2363;DHT22;64265;51.664;7.626;2023-02-02T02:45:22;18.50;65.80
2363;DHT22;64265;51.664;7.626;2023-02-02T02:47:51;18.50;65.80
2363;DHT22;64265;51.664;7.626;2023-02-02T02:50:18;18.50;65.80
2363;DHT22;64265;51.664;7.626;2023-02-02T02:52:46;18.50;66.60
2363;DHT22;64265;51.664;7.626;2023-02-02T02:55:15;18.50;65.80
2363;DHT22;64265;51.664;7.626;2023-02-02T02:58:02;18.50;65.80
2363;DHT22;64265;51.664;7.626;2023-02-02T03:00:47;18.50;65.80
2363;DHT22;64265;51.664;7.626;2023-02-02T03:03:23;18.50;65.80
2363;DHT22;64265;51.664;7.626;2023-02-02T03:05:59;18.50;65.80
2363;DHT22;64265;51.664;7.626;2023-02-02T03:08:30;18.40;65.60
2363;DHT22;64265;51.664;7.626;2023-02-02T03:10:58;18.40;65.60
2363;DHT22;64265;51.664;7.626;2023-02-02T03:13:27;18.40;65.60
2363;DHT22;64265;51.664;7.626;2023-02-02T03:15:54;18.40;65.60
2363;DHT22;64265;51.664;7.626;2023-02-02T03:18:25;18.40;65.50
2363;DHT22;64265;51.664;7.626;2023-02-02T03:20:53;18.40;65.50
2363;DHT22;64265;51.664;7.626;2023-02-02T03:23:20;18.40;65.50
2363;DHT22;64265;51.664;7.626;2023-02-02T03:25:47;18.40;65.50
2363;DHT22;64265;51.664;7.626;2023-02-02T03:28:14;18.40;65.40
2363;DHT22;64265;51.664;7.626;2023-02-02T03:30:42;18.40;66.20
2363;DHT22;64265;51.664;7.626;2023-02-02T03:33:10;18.40;65.50
2363;DHT22;64265;51.664;7.626;2023-02-02T03:35:38;18.40;65.50
2363;DHT22;64265;51.664;7.626;2023-02-02T03:38:05;18.40;65.40
2363;DHT22;64265;51.664;7.626;2023-02-02T03:40:33;18.40;65.40
2363;DHT22;64265;51.664;7.626;2023-02-02T03:43:00;18.40;65.40
2363;DHT22;64265;51.664;7.626;2023-02-02T03:45:28;18.40;65.40
2363;DHT22;64265;51.664;7.626;2023-02-02T03:47:55;18.40;65.30
2363;DHT22;64265;51.664;7.626;2023-02-02T03:50:21;18.40;65.30
2363;DHT22;64265;51.664;7.626;2023-02-02T03:52:50;18.40;65.30
2363;DHT22;64265;51.664;7.626;2023-02-02T03:55:19;18.30;65.20
2363;DHT22;64265;51.664;7.626;2023-02-02T03:57:45;18.30;65.20
2363;DHT22;64265;51.664;7.626;2023-02-02T04:00:12;18.30;65.20
2363;DHT22;64265;51.664;7.626;2023-02-02T04:02:39;18.30;65.30
2363;DHT22;64265;51.664;7.626;2023-02-02T04:05:06;18.30;65.30
2363;DHT22;64265;51.664;7.626;2023-02-02T04:07:33;18.30;65.30
2363;DHT22;64265;51.664;7.626;2023-02-02T04:10:01;18.30;65.40
2363;DHT22;64265;51.664;7.626;2023-02-02T04:12:28;18.30;65.40
2363;DHT22;64265;51.664;7.626;2023-02-02T04:14:55;18.30;65.40
2363;DHT22;64265;51.664;7.626;2023-02-02T04:17:21;18.30;65.40
2363;DHT22;64265;51.664;7.626;2023-02-02T04:19:48;18.30;65.50
2363;DHT22;64265;51.664;7.626;2023-02-02T04:22:17;18.30;65.50
2363;DHT22;64265;51.664;7.626;2023-02-02T04:24:44;18.30;65.50
2363;DHT22;64265;51.664;7.626;2023-02-02T04:27:12;18.30;65.50
2363;DHT22;64265;51.664;7.626;2023-02-02T04:29:39;18.20;65.40
2363;DHT22;64265;51.664;7.626;2023-02-02T04:32:05;18.20;65.40
2363;DHT22;64265;51.664;7.626;2023-02-02T04:34:32;18.30;65.50
2363;DHT22;64265;51.664;7.626;2023-02-02T04:36:59;18.20;65.40
2363;DHT22;64265;51.664;7.626;2023-02-02T04:39:26;18.20;65.40
2363;DHT22;64265;51.664;7.626;2023-02-02T04:41:52;18.20;65.40
2363;DHT22;64265;51.664;7.626;2023-02-02T04:44:20;18.20;65.50
2363;DHT22;64265;51.664;7.626;2023-02-02T04:46:47;18.20;65.50
2363;DHT22;64265;51.664;7.626;2023-02-02T04:49:14;18.20;65.50
2363;DHT22;64265;51.664;7.626;2023-02-02T04:51:40;18.20;65.50
2363;DHT22;64265;51.664;7.626;2023-02-02T04:54:07;18.20;65.50
2363;DHT22;64265;51.664;7.626;2023-02-02T04:56:34;18.20;65.50
2363;DHT22;64265;51.664;7.626;2023-02-02T04:59:01;18.20;65.50
2363;DHT22;64265;51.664;7.626;2023-02-02T05:01:29;18.20;65.50
2363;DHT22;64265;51.664;7.626;2023-02-02T05:03:57;18.20;65.50
2363;DHT22;64265;51.664;7.626;2023-02-02T05:06:24;18.20;65.50
2363;DHT22;64265;51.664;7.626;2023-02-02T05:08:50;18.10;65.50
2363;DHT22;64265;51.664;7.626;2023-02-02T05:11:19;18.20;65.50
2363;DHT22;64265;51.664;7.626;2023-02-02T05:13:47;18.10;65.50
2363;DHT22;64265;51.664;7.626;2023-02-02T05:16:14;18.20;65.60
2363;DHT22;64265;51.664;7.626;2023-02-02T05:18:47;18.10;65.50
2363;DHT22;64265;51.664;7.626;2023-02-02T05:21:14;18.10;65.50
2363;DHT22;64265;51.664;7.626;2023-02-02T05:23:41;18.10;65.50
2363;DHT22;64265;51.664;7.626;2023-02-02T05:26:11;18.10;65.50
2363;DHT22;64265;51.664;7.626;2023-02-02T05:28:39;18.10;65.50
2363;DHT22;64265;51.664;7.626;2023-02-02T05:31:07;18.10;65.50
2363;DHT22;64265;51.664;7.626;2023-02-02T05:33:34;18.10;65.50
2363;DHT22;64265;51.664;7.626;2023-02-02T05:36:02;18.10;65.50
2363;DHT22;64265;51.664;7.626;2023-02-02T05:38:29;18.10;65.50
2363;DHT22;64265;51.664;7.626;2023-02-02T05:40:56;18.10;65.50
2363;DHT22;64265;51.664;7.626;2023-02-02T05:43:24;18.10;65.50
2363;DHT22;64265;51.664;7.626;2023-02-02T05:45:51;18.00;65.40
2363;DHT22;64265;51.664;7.626;2023-02-02T05:48:17;18.00;65.40
2363;DHT22;64265;51.664;7.626;2023-02-02T05:50:47;18.00;66.20
2363;DHT22;64265;51.664;7.626;2023-02-02T05:53:22;18.00;65.50
2363;DHT22;64265;51.664;7.626;2023-02-02T05:55:49;18.00;65.40
2363;DHT22;64265;51.664;7.626;2023-02-02T05:58:15;18.00;65.40
2363;DHT22;64265;51.664;7.626;2023-02-02T06:00:42;18.00;65.50
2363;DHT22;64265;51.664;7.626;2023-02-02T06:03:09;18.00;65.40
2363;DHT22;64265;51.664;7.626;2023-02-02T06:05:37;18.00;65.50
2363;DHT22;64265;51.664;7.626;2023-02-02T06:08:04;18.00;65.50
2363;DHT22;64265;51.664;7.626;2023-02-02T06:10:32;18.00;65.50
2363;DHT22;64265;51.664;7.626;2023-02-02T06:12:59;18.00;65.50
2363;DHT22;64265;51.664;7.626;2023-02-02T06:15:26;18.00;65.50
2363;DHT22;64265;51.664;7.626;2023-02-02T06:17:53;18.00;65.50
2363;DHT22;64265;51.664;7.626;2023-02-02T06:20:20;18.00;65.50
2363;DHT22;64265;51.664;7.626;2023-02-02T06:22:47;18.00;65.50
2363;DHT22;64265;51.664;7.626;2023-02-02T06:25:14;18.00;65.50
2363;DHT22;64265;51.664;7.626;2023-02-02T06:27:42;17.90;65.30
2363;DHT22;64265;51.664;7.626;2023-02-02T06:30:11;17.90;65.40
2363;DHT22;64265;51.664;7.626;2023-02-02T06:32:38;18.00;65.50
2363;DHT22;64265;51.664;7.626;2023-02-02T06:35:06;17.90;65.40
2363;DHT22;64265;51.664;7.626;2023-02-02T06:37:33;17.90;65.40
2363;DHT22;64265;51.664;7.626;2023-02-02T06:39:59;17.90;65.40
2363;DHT22;64265;51.664;7.626;2023-02-02T06:42:26;18.00;65.50
2363;DHT22;64265;51.664;7.626;2023-02-02T06:44:54;17.90;65.40
2363;DHT22;64265;51.664;7.626;2023-02-02T06:47:21;17.90;65.40
2363;DHT22;64265;51.664;7.626;2023-02-02T06:49:48;17.90;65.40
2363;DHT22;64265;51.664;7.626;2023-02-02T06:52:14;17.90;65.60
2363;DHT22;64265;51.664;7.626;2023-02-02T06:54:41;17.90;65.60
2363;DHT22;64265;51.664;7.626;2023-02-02T06:57:08;17.90;65.50
2363;DHT22;64265;51.664;7.626;2023-02-02T06:59:36;17.90;65.30
2363;DHT22;64265;51.664;7.626;2023-02-02T07:02:09;18.00;65.40
2363;DHT22;64265;51.664;7.626;2023-02-02T07:04:36;18.00;65.30
2363;DHT22;64265;51.664;7.626;2023-02-02T07:07:03;18.00;65.30
2363;DHT22;64265;51.664;7.626;2023-02-02T07:09:31;18.00;65.10
2363;DHT22;64265;51.664;7.626;2023-02-02T07:11:58;18.10;65.30
2363;DHT22;64265;51.664;7.626;2023-02-02T07:14:24;18.10;65.10
2363;DHT22;64265;51.664;7.626;2023-02-02T07:16:52;18.10;65.00
2363;DHT22;64265;51.664;7.626;2023-02-02T07:19:20;18.20;65.10
2363;DHT22;64265;51.664;7.626;2023-02-02T07:21:47;18.20;65.10
2363;DHT22;64265;51.664;7.626;2023-02-02T07:24:13;18.20;65.10
2363;DHT22;64265;51.664;7.626;2023-02-02T07:26:40;18.20;65.10
2363;DHT22;64265;51.664;7.626;2023-02-02T07:29:09;18.20;65.00
2363;DHT22;64265;51.664;7.626;2023-02-02T07:31:37;18.20;65.10
2363;DHT22;64265;51.664;7.626;2023-02-02T07:34:04;18.30;65.30
2363;DHT22;64265;51.664;7.626;2023-02-02T07:36:32;18.30;65.20
2363;DHT22;64265;51.664;7.626;2023-02-02T07:38:59;18.30;65.30
2363;DHT22;64265;51.664;7.626;2023-02-02T07:41:28;18.30;65.30
2363;DHT22;64265;51.664;7.626;2023-02-02T07:43:55;18.30;65.30
2363;DHT22;64265;51.664;7.626;2023-02-02T07:46:22;18.30;65.30
2363;DHT22;64265;51.664;7.626;2023-02-02T07:48:52;18.30;65.30
2363;DHT22;64265;51.664;7.626;2023-02-02T07:51:19;18.30;65.30
2363;DHT22;64265;51.664;7.626;2023-02-02T07:53:49;18.30;65.30
2363;DHT22;64265;51.664;7.626;2023-02-02T07:56:18;18.30;65.40
2363;DHT22;64265;51.664;7.626;2023-02-02T07:58:45;18.30;65.30
2363;DHT22;64265;51.664;7.626;2023-02-02T08:01:14;18.30;65.40
2363;DHT22;64265;51.664;7.626;2023-02-02T08:03:41;18.30;65.40
2363;DHT22;64265;51.664;7.626;2023-02-02T08:06:11;18.30;65.30
2363;DHT22;64265;51.664;7.626;2023-02-02T08:08:39;18.30;65.30
2363;DHT22;64265;51.664;7.626;2023-02-02T08:11:10;18.30;65.30
2363;DHT22;64265;51.664;7.626;2023-02-02T08:13:37;18.40;65.40
2363;DHT22;64265;51.664;7.626;2023-02-02T08:16:05;18.40;65.30
2363;DHT22;64265;51.664;7.626;2023-02-02T08:18:32;18.40;65.30
2363;DHT22;64265;51.664;7.626;2023-02-02T08:20:59;18.40;66.10
2363;DHT22;64265;51.664;7.626;2023-02-02T08:23:26;18.40;65.30
2363;DHT22;64265;51.664;7.626;2023-02-02T08:25:53;18.40;65.30
2363;DHT22;64265;51.664;7.626;2023-02-02T08:28:22;18.40;65.30
2363;DHT22;64265;51.664;7.626;2023-02-02T08:30:49;18.50;65.40
2363;DHT22;64265;51.664;7.626;2023-02-02T08:33:15;18.50;65.40
2363;DHT22;64265;51.664;7.626;2023-02-02T08:35:42;18.50;65.40
2363;DHT22;64265;51.664;7.626;2023-02-02T08:38:10;18.50;65.40
2363;DHT22;64265;51.664;7.626;2023-02-02T08:40:36;18.50;65.40
2363;DHT22;64265;51.664;7.626;2023-02-02T08:43:03;18.50;65.40
2363;DHT22;64265;51.664;7.626;2023-02-02T08:45:31;18.50;65.40
2363;DHT22;64265;51.664;7.626;2023-02-02T08:47:58;18.50;65.30
2363;DHT22;64265;51.664;7.626;2023-02-02T08:50:27;18.50;65.30
2363;DHT22;64265;51.664;7.626;2023-02-02T08:52:54;18.60;65.40
2363;DHT22;64265;51.664;7.626;2023-02-02T08:55:21;18.60;65.40
2363;DHT22;64265;51.664;7.626;2023-02-02T08:57:48;18.60;65.50
2363;DHT22;64265;51.664;7.626;2023-02-02T09:00:16;18.60;65.40
2363;DHT22;64265;51.664;7.626;2023-02-02T09:02:44;18.60;65.40
2363;DHT22;64265;51.664;7.626;2023-02-02T09:05:14;18.60;65.50
2363;DHT22;64265;51.664;7.626;2023-02-02T09:07:41;18.60;65.50
2363;DHT22;64265;51.664;7.626;2023-02-02T09:10:09;18.60;65.50
2363;DHT22;64265;51.664;7.626;2023-02-02T09:12:36;18.70;66.50
2363;DHT22;64265;51.664;7.626;2023-02-02T09:15:03;18.70;66.30
2363;DHT22;64265;51.664;7.626;2023-02-02T09:17:31;18.70;66.30
2363;DHT22;64265;51.664;7.626;2023-02-02T09:19:59;18.70;66.20
2363;DHT22;64265;51.664;7.626;2023-02-02T09:22:26;18.70;66.20
2363;DHT22;64265;51.664;7.626;2023-02-02T09:24:53;18.70;66.20
2363;DHT22;64265;51.664;7.626;2023-02-02T09:27:19;18.70;66.20
2363;DHT22;64265;51.664;7.626;2023-02-02T09:29:48;18.70;66.20
2363;DHT22;64265;51.664;7.626;2023-02-02T09:32:15;18.70;66.20
2363;DHT22;64265;51.664;7.626;2023-02-02T09:34:42;18.70;66.20
2363;DHT22;64265;51.664;7.626;2023-02-02T09:37:11;18.70;66.20
2363;DHT22;64265;51.664;7.626;2023-02-02T09:39:38;18.70;66.20
2363;DHT22;64265;51.664;7.626;2023-02-02T09:42:25;18.70;66.20
2363;DHT22;64265;51.664;7.626;2023-02-02T09:45:03;18.70;66.20
2363;DHT22;64265;51.664;7.626;2023-02-02T09:47:53;18.70;66.20
2363;DHT22;64265;51.664;7.626;2023-02-02T09:50:40;18.70;66.20
2363;DHT22;64265;51.664;7.626;2023-02-02T09:53:19;18.70;66.20
2363;DHT22;64265;51.664;7.626;2023-02-02T09:55:48;18.70;66.10
2363;DHT22;64265;51.664;7.626;2023-02-02T09:58:21;18.70;66.00
2363;DHT22;64265;51.664;7.626;2023-02-02T10:00:55;18.70;66.00
2363;DHT22;64265;51.664;7.626;2023-02-02T10:03:32;18.70;66.00
2363;DHT22;64265;51.664;7.626;2023-02-02T10:06:06;18.70;66.00
2363;DHT22;64265;51.664;7.626;2023-02-02T10:08:44;18.70;66.00
2363;DHT22;64265;51.664;7.626;2023-02-02T10:11:29;18.70;66.00
2363;DHT22;64265;51.664;7.626;2023-02-02T10:14:00;18.80;66.10
2363;DHT22;64265;51.664;7.626;2023-02-02T10:16:30;18.80;66.20
2363;DHT22;64265;51.664;7.626;2023-02-02T10:19:00;18.80;66.10
2363;DHT22;64265;51.664;7.626;2023-02-02T10:21:35;18.80;66.00
2363;DHT22;64265;51.664;7.626;2023-02-02T10:24:15;18.80;66.00
2363;DHT22;64265;51.664;7.626;2023-02-02T10:26:46;18.80;66.00
2363;DHT22;64265;51.664;7.626;2023-02-02T10:29:18;18.80;66.00
2363;DHT22;64265;51.664;7.626;2023-02-02T10:31:59;18.80;66.00
2363;DHT22;64265;51.664;7.626;2023-02-02T10:34:34;18.80;66.00
2363;DHT22;64265;51.664;7.626;2023-02-02T10:37:23;18.80;66.00
2363;DHT22;64265;51.664;7.626;2023-02-02T10:40:06;18.80;66.00
2363;DHT22;64265;51.664;7.626;2023-02-02T10:42:41;18.80;66.00
2363;DHT22;64265;51.664;7.626;2023-02-02T10:45:12;18.80;65.90
2363;DHT22;64265;51.664;7.626;2023-02-02T10:47:40;18.80;66.20
2363;DHT22;64265;51.664;7.626;2023-02-02T10:50:15;18.90;66.50
2363;DHT22;64265;51.664;7.626;2023-02-02T10:52:47;18.90;66.50
2363;DHT22;64265;51.664;7.626;2023-02-02T10:55:29;18.90;66.70
2363;DHT22;64265;51.664;7.626;2023-02-02T10:58:04;18.90;67.00
2363;DHT22;64265;51.664;7.626;2023-02-02T11:00:35;18.90;67.10
2363;DHT22;64265;51.664;7.626;2023-02-02T11:03:03;18.90;67.10
2363;DHT22;64265;51.664;7.626;2023-02-02T11:05:31;18.90;67.20
2363;DHT22;64265;51.664;7.626;2023-02-02T11:08:18;18.90;67.30
2363;DHT22;64265;51.664;7.626;2023-02-02T11:10:48;18.90;67.40
2363;DHT22;64265;51.664;7.626;2023-02-02T11:13:27;18.90;67.50
2363;DHT22;64265;51.664;7.626;2023-02-02T11:16:21;18.90;67.60
2363;DHT22;64265;51.664;7.626;2023-02-02T11:18:48;19.00;67.80
2363;DHT22;64265;51.664;7.626;2023-02-02T11:21:18;19.00;67.80
2363;DHT22;64265;51.664;7.626;2023-02-02T11:23:53;19.00;67.80
2363;DHT22;64265;51.664;7.626;2023-02-02T11:26:23;19.00;67.90
2363;DHT22;64265;51.664;7.626;2023-02-02T11:28:52;19.00;68.10
2363;DHT22;64265;51.664;7.626;2023-02-02T11:31:30;19.00;68.00
2363;DHT22;64265;51.664;7.626;2023-02-02T11:34:08;19.10;68.10
2363;DHT22;64265;51.664;7.626;2023-02-02T11:36:35;19.10;68.10
2363;DHT22;64265;51.664;7.626;2023-02-02T11:39:15;19.10;68.10
2363;DHT22;64265;51.664;7.626;2023-02-02T11:41:46;19.10;68.10
2363;DHT22;64265;51.664;7.626;2023-02-02T11:44:22;19.10;68.10
2363;DHT22;64265;51.664;7.626;2023-02-02T11:46:50;19.10;68.10
2363;DHT22;64265;51.664;7.626;2023-02-02T11:49:19;19.10;68.10
2363;DHT22;64265;51.664;7.626;2023-02-02T11:51:56;19.10;68.10
2363;DHT22;64265;51.664;7.626;2023-02-02T11:54:27;19.10;68.10
2363;DHT22;64265;51.664;7.626;2023-02-02T11:56:59;19.10;68.20
2363;DHT22;64265;51.664;7.626;2023-02-02T11:59:31;19.10;68.20
2363;DHT22;64265;51.664;7.626;2023-02-02T12:02:25;19.10;68.30
2363;DHT22;64265;51.664;7.626;2023-02-02T12:04:54;19.20;68.30
2363;DHT22;64265;51.664;7.626;2023-02-02T12:07:25;19.20;68.30
2363;DHT22;64265;51.664;7.626;2023-02-02T12:09:56;19.10;68.30
2363;DHT22;64265;51.664;7.626;2023-02-02T12:12:34;19.20;68.40
2363;DHT22;64265;51.664;7.626;2023-02-02T12:15:10;19.20;68.40
2363;DHT22;64265;51.664;7.626;2023-02-02T12:17:41;19.20;68.40
2363;DHT22;64265;51.664;7.626;2023-02-02T12:20:25;19.20;68.40
2363;DHT22;64265;51.664;7.626;2023-02-02T12:23:10;19.20;68.40
2363;DHT22;64265;51.664;7.626;2023-02-02T12:25:55;19.20;68.50
2363;DHT22;64265;51.664;7.626;2023-02-02T12:28:39;19.00;68.10
2363;DHT22;64265;51.664;7.626;2023-02-02T12:31:13;18.40;68.50
2363;DHT22;64265;51.664;7.626;2023-02-02T12:33:49;18.00;69.20
2363;DHT22;64265;51.664;7.626;2023-02-02T12:36:29;17.70;69.70
2363;DHT22;64265;51.664;7.626;2023-02-02T12:39:12;17.60;70.00
2363;DHT22;64265;51.664;7.626;2023-02-02T12:41:59;17.50;70.40
2363;DHT22;64265;51.664;7.626;2023-02-02T12:44:38;17.30;70.70
2363;DHT22;64265;51.664;7.626;2023-02-02T12:47:14;17.20;71.00
2363;DHT22;64265;51.664;7.626;2023-02-02T12:49:57;17.20;71.10
2363;DHT22;64265;51.664;7.626;2023-02-02T12:52:51;17.10;71.50
2363;DHT22;64265;51.664;7.626;2023-02-02T12:55:24;17.50;70.60
2363;DHT22;64265;51.664;7.626;2023-02-02T12:58:00;17.80;69.80
2363;DHT22;64265;51.664;7.626;2023-02-02T13:00:53;18.10;69.40
2363;DHT22;64265;51.664;7.626;2023-02-02T13:03:29;18.30;69.00
2363;DHT22;64265;51.664;7.626;2023-02-02T13:06:10;18.40;68.70
2363;DHT22;64265;51.664;7.626;2023-02-02T13:08:46;18.50;68.40
2363;DHT22;64265;51.664;7.626;2023-02-02T13:11:19;18.60;68.20
2363;DHT22;64265;51.664;7.626;2023-02-02T13:13:59;18.70;68.10
2363;DHT22;64265;51.664;7.626;2023-02-02T13:16:30;18.70;67.90
2363;DHT22;64265;51.664;7.626;2023-02-02T13:19:03;18.80;67.90
2363;DHT22;64265;51.664;7.626;2023-02-02T13:21:31;18.80;67.80
2363;DHT22;64265;51.664;7.626;2023-02-02T13:24:02;18.80;67.70
2363;DHT22;64265;51.664;7.626;2023-02-02T13:26:33;18.80;67.60
2363;DHT22;64265;51.664;7.626;2023-02-02T13:29:06;18.90;67.70
2363;DHT22;64265;51.664;7.626;2023-02-02T13:31:40;18.90;67.60
2363;DHT22;64265;51.664;7.626;2023-02-02T13:34:14;18.90;67.50
2363;DHT22;64265;51.664;7.626;2023-02-02T13:36:47;18.90;67.50
2363;DHT22;64265;51.664;7.626;2023-02-02T13:39:19;18.90;67.40
2363;DHT22;64265;51.664;7.626;2023-02-02T13:41:48;18.90;67.30
2363;DHT22;64265;51.664;7.626;2023-02-02T13:44:17;19.00;67.40
2363;DHT22;64265;51.664;7.626;2023-02-02T13:46:51;19.00;67.30
2363;DHT22;64265;51.664;7.626;2023-02-02T13:49:25;19.00;67.30
2363;DHT22;64265;51.664;7.626;2023-02-02T13:52:02;19.00;67.30
2363;DHT22;64265;51.664;7.626;2023-02-02T13:55:14;19.00;67.30
2363;DHT22;64265;51.664;7.626;2023-02-02T14:00:35;19.10;67.30
2363;DHT22;64265;51.664;7.626;2023-02-02T14:03:16;19.10;67.20
2363;DHT22;64265;51.664;7.626;2023-02-02T14:06:01;19.10;67.20
2363;DHT22;64265;51.664;7.626;2023-02-02T14:08:29;19.20;67.30
2363;DHT22;64265;51.664;7.626;2023-02-02T14:10:58;19.20;67.20
2363;DHT22;64265;51.664;7.626;2023-02-02T14:13:36;19.20;67.20
2363;DHT22;64265;51.664;7.626;2023-02-02T14:16:47;19.20;67.10
2363;DHT22;64265;51.664;7.626;2023-02-02T14:19:17;19.20;67.10
2363;DHT22;64265;51.664;7.626;2023-02-02T14:22:17;19.20;67.10
2363;DHT22;64265;51.664;7.626;2023-02-02T14:24:46;19.20;67.00
2363;DHT22;64265;51.664;7.626;2023-02-02T14:30:22;19.30;67.10
2363;DHT22;64265;51.664;7.626;2023-02-02T14:32:50;19.30;67.00
2363;DHT22;64265;51.664;7.626;2023-02-02T14:35:52;19.30;67.00
2363;DHT22;64265;51.664;7.626;2023-02-02T14:38:38;19.30;67.00
2363;DHT22;64265;51.664;7.626;2023-02-02T14:41:14;19.30;67.00
2363;DHT22;64265;51.664;7.626;2023-02-02T14:44:04;19.30;67.10
2363;DHT22;64265;51.664;7.626;2023-02-02T14:46:38;19.40;67.30
2363;DHT22;64265;51.664;7.626;2023-02-02T14:49:11;19.40;67.40
2363;DHT22;64265;51.664;7.626;2023-02-02T14:51:55;19.40;67.40
2363;DHT22;64265;51.664;7.626;2023-02-02T14:54:31;19.40;67.50
2363;DHT22;64265;51.664;7.626;2023-02-02T14:57:02;19.50;67.60
2363;DHT22;64265;51.664;7.626;2023-02-02T14:59:32;19.50;67.60
2363;DHT22;64265;51.664;7.626;2023-02-02T15:02:08;19.50;67.60
2363;DHT22;64265;51.664;7.626;2023-02-02T15:04:39;19.50;67.60
2363;DHT22;64265;51.664;7.626;2023-02-02T15:07:35;19.50;67.60
2363;DHT22;64265;51.664;7.626;2023-02-02T15:10:06;19.50;67.70
2363;DHT22;64265;51.664;7.626;2023-02-02T15:12:37;19.60;67.90
2363;DHT22;64265;51.664;7.626;2023-02-02T15:15:12;19.60;67.80
2363;DHT22;64265;51.664;7.626;2023-02-02T15:17:56;19.60;67.80
2363;DHT22;64265;51.664;7.626;2023-02-02T15:20:27;19.70;67.90
2363;DHT22;64265;51.664;7.626;2023-02-02T15:22:57;19.70;68.00
2363;DHT22;64265;51.664;7.626;2023-02-02T15:25:32;19.70;68.00
2363;DHT22;64265;51.664;7.626;2023-02-02T15:28:06;19.70;68.00
2363;DHT22;64265;51.664;7.626;2023-02-02T15:30:36;19.70;68.00
2363;DHT22;64265;51.664;7.626;2023-02-02T15:33:15;19.70;68.00
2363;DHT22;64265;51.664;7.626;2023-02-02T15:35:43;19.70;68.80
2363;DHT22;64265;51.664;7.626;2023-02-02T15:38:15;19.70;68.00
2363;DHT22;64265;51.664;7.626;2023-02-02T15:40:46;19.80;68.20
2363;DHT22;64265;51.664;7.626;2023-02-02T15:43:13;19.80;68.20
2363;DHT22;64265;51.664;7.626;2023-02-02T15:45:43;19.80;68.20
2363;DHT22;64265;51.664;7.626;2023-02-02T15:48:21;19.80;68.20
2363;DHT22;64265;51.664;7.626;2023-02-02T15:50:50;19.80;68.20
2363;DHT22;64265;51.664;7.626;2023-02-02T15:53:23;19.90;68.30
2363;DHT22;64265;51.664;7.626;2023-02-02T15:55:52;19.90;68.30
2363;DHT22;64265;51.664;7.626;2023-02-02T15:58:25;19.90;68.30
2363;DHT22;64265;51.664;7.626;2023-02-02T16:00:58;19.90;68.30
2363;DHT22;64265;51.664;7.626;2023-02-02T16:03:36;19.90;68.30
2363;DHT22;64265;51.664;7.626;2023-02-02T16:06:05;19.90;68.30
2363;DHT22;64265;51.664;7.626;2023-02-02T16:08:35;19.90;68.30
2363;DHT22;64265;51.664;7.626;2023-02-02T16:11:07;19.90;68.30
2363;DHT22;64265;51.664;7.626;2023-02-02T16:13:35;19.90;68.30
2363;DHT22;64265;51.664;7.626;2023-02-02T16:16:04;19.90;68.30
2363;DHT22;64265;51.664;7.626;2023-02-02T16:18:33;19.90;68.30
2363;DHT22;64265;51.664;7.626;2023-02-02T16:21:08;20.00;68.40